createdAt,value
2023-03-16T00:06:48.154Z,100.00
2023-03-16T00:14:06.367Z,100.00
2023-03-16T00:21:24.551Z,100.00
2023-03-16T00:28:44.441Z,100.00
2023-03-16T00:36:08.601Z,100.00
2023-03-16T00:43:28.326Z,100.00
2023-03-16T00:50:48.743Z,100.00
2023-03-16T00:58:06.956Z,100.00
2023-03-16T01:05:25.137Z,100.00
2023-03-16T01:12:46.199Z,100.00
2023-03-16T01:20:08.228Z,100.00
2023-03-16T01:27:26.397Z,100.00
2023-03-16T01:34:46.136Z,100.00
2023-03-16T01:42:05.346Z,100.00
2023-03-16T01:49:26.108Z,100.00
2023-03-16T01:56:52.394Z,100.00
2023-03-16T02:04:23.220Z,100.00
2023-03-16T02:11:44.071Z,100.00
2023-03-16T02:19:12.163Z,100.00
2023-03-16T02:26:36.243Z,100.00
2023-03-16T02:33:58.050Z,100.00
2023-03-16T02:41:18.713Z,100.00
2023-03-16T03:14:58.200Z,100.00
2023-03-16T03:50:56.643Z,100.00
2023-03-16T03:58:33.882Z,100.00
2023-03-16T04:05:57.704Z,100.00
2023-03-16T04:13:16.146Z,100.00
2023-03-16T04:20:34.580Z,100.00
2023-03-16T04:27:54.738Z,100.00
2023-03-16T04:35:17.879Z,100.00
2023-03-16T04:42:40.607Z,100.00
2023-03-16T04:50:04.756Z,100.00
2023-03-16T04:57:23.563Z,100.00
2023-03-16T05:04:44.666Z,100.00
2023-03-16T05:12:05.557Z,100.00
2023-03-16T05:19:24.370Z,100.00
2023-03-16T05:26:42.628Z,100.00
2023-03-16T05:34:05.550Z,100.00
2023-03-16T05:41:24.367Z,100.00
2023-03-16T05:48:57.864Z,100.00
2023-03-16T05:56:17.628Z,100.00
2023-03-16T06:03:38.591Z,100.00
2023-03-16T06:10:59.940Z,100.00
2023-03-16T06:18:19.661Z,100.00
2023-03-16T06:25:40.610Z,100.00
2023-03-16T06:33:00.448Z,100.00
2023-03-16T06:40:21.082Z,100.00
2023-03-16T06:47:39.428Z,100.00
2023-03-16T06:54:58.639Z,100.00
2023-03-16T07:02:20.357Z,100.00
2023-03-16T07:09:41.566Z,100.00
2023-03-16T07:17:00.493Z,100.00
2023-03-16T07:24:20.941Z,100.00
2023-03-16T07:31:39.413Z,100.00
2023-03-16T07:39:06.901Z,100.00
2023-03-16T07:46:27.942Z,100.00
2023-03-16T07:53:46.340Z,100.00
2023-03-16T08:01:11.008Z,100.00
2023-03-16T08:08:31.683Z,92.95
2023-03-16T08:15:55.987Z,95.20
2023-03-16T08:23:20.029Z,71.43
2023-03-16T08:30:45.958Z,68.54
2023-03-16T08:38:32.345Z,67.50
2023-03-16T08:45:56.047Z,60.51
2023-03-16T08:53:18.966Z,63.56
2023-03-16T09:00:37.653Z,52.03
2023-03-16T09:07:57.196Z,56.79
2023-03-16T09:15:15.506Z,49.86
2023-03-16T09:22:33.993Z,49.82
2023-03-16T09:29:58.876Z,48.49
2023-03-16T09:37:17.164Z,47.91
2023-03-16T09:44:41.103Z,43.66
2023-03-16T09:52:07.826Z,41.52
2023-03-16T09:59:30.007Z,42.81
2023-03-16T10:06:55.645Z,43.11
2023-03-16T10:14:20.261Z,42.39
2023-03-16T10:21:41.399Z,41.08
2023-03-16T10:29:01.720Z,40.64
2023-03-16T10:36:26.882Z,39.55
2023-03-16T10:43:45.168Z,40.59
2023-03-16T10:51:05.762Z,40.28
2023-03-16T10:58:27.254Z,41.32
2023-03-16T11:05:47.356Z,41.57
2023-03-16T11:13:12.705Z,40.03
2023-03-16T11:20:35.116Z,41.61
2023-03-16T11:27:56.735Z,42.02
2023-03-16T11:35:17.768Z,41.11
2023-03-16T11:42:40.196Z,37.30
2023-03-16T11:50:01.649Z,35.44
2023-03-16T11:57:32.846Z,37.13
2023-03-16T12:05:01.730Z,39.27
2023-03-16T12:12:30.812Z,40.47
2023-03-16T12:19:52.997Z,42.08
2023-03-16T12:27:17.783Z,37.82
2023-03-16T12:34:41.108Z,38.02
2023-03-16T12:42:08.513Z,36.93
2023-03-16T12:49:28.886Z,37.93
2023-03-16T12:56:48.209Z,39.14
2023-03-16T13:04:12.655Z,37.28
2023-03-16T13:11:45.816Z,37.14
2023-03-16T13:19:18.972Z,35.78
2023-03-16T13:26:42.156Z,36.66
2023-03-16T13:34:02.894Z,38.07
2023-03-16T13:41:21.235Z,37.61
2023-03-16T13:48:42.414Z,38.05
2023-03-16T13:56:02.276Z,35.36
2023-03-16T14:03:22.475Z,37.25
2023-03-16T14:10:43.784Z,37.29
2023-03-16T14:18:14.613Z,38.71
2023-03-16T14:25:34.648Z,38.03
2023-03-16T14:32:59.881Z,38.26
2023-03-16T14:40:27.343Z,39.81
2023-03-16T14:47:46.862Z,38.74
2023-03-16T14:55:19.397Z,39.13
2023-03-16T15:02:37.949Z,39.86
2023-03-16T15:09:58.404Z,38.11
2023-03-16T15:17:18.140Z,39.58
2023-03-16T15:24:36.574Z,39.32
2023-03-16T15:31:55.018Z,39.39
2023-03-16T15:39:21.664Z,40.91
2023-03-16T15:46:40.179Z,40.70
2023-03-16T15:54:00.623Z,40.80
2023-03-16T16:01:24.261Z,42.95
2023-03-16T16:08:42.556Z,41.90
2023-03-16T16:16:01.490Z,42.33
2023-03-16T16:23:21.217Z,42.66
2023-03-16T16:30:39.981Z,41.55
2023-03-16T16:37:58.297Z,42.82
2023-03-16T16:45:20.916Z,43.48
2023-03-16T16:52:39.029Z,45.66
2023-03-16T16:59:58.672Z,46.30
2023-03-16T17:07:18.439Z,46.97
2023-03-16T17:14:37.106Z,50.00
2023-03-16T17:21:57.411Z,47.10
2023-03-16T17:29:21.163Z,46.22
2023-03-16T17:36:39.140Z,48.09
2023-03-16T17:43:59.246Z,49.32
2023-03-16T17:51:19.421Z,51.45
2023-03-16T17:58:38.330Z,54.33
2023-03-16T18:05:56.936Z,54.66
2023-03-16T18:13:20.907Z,55.14
2023-03-16T18:20:39.150Z,56.63
2023-03-16T18:27:58.141Z,58.87
2023-03-16T18:35:19.536Z,58.13
2023-03-16T18:42:38.438Z,59.99
2023-03-16T18:50:00.341Z,61.08
2023-03-16T18:57:22.484Z,61.41
2023-03-16T19:04:40.685Z,62.48
2023-03-16T19:12:00.293Z,63.32
2023-03-16T19:19:22.285Z,63.53
2023-03-16T19:26:40.936Z,62.96
2023-03-16T19:33:59.932Z,63.20
2023-03-16T19:41:27.186Z,67.53
2023-03-16T19:48:47.811Z,69.38
2023-03-16T19:56:07.365Z,71.09
2023-03-16T20:03:27.659Z,75.00
2023-03-16T20:10:47.347Z,77.11
2023-03-16T20:18:07.203Z,78.61
2023-03-16T20:25:32.376Z,78.85
2023-03-16T20:32:51.515Z,80.04
2023-03-16T20:40:10.517Z,84.17
2023-03-16T20:47:30.122Z,85.80
2023-03-16T20:54:48.529Z,89.01
2023-03-16T21:02:21.006Z,97.46
2023-03-16T21:09:42.122Z,100.00
2023-03-16T21:17:03.459Z,100.00
2023-03-16T21:24:22.025Z,100.00
2023-03-16T21:31:42.021Z,100.00
2023-03-16T21:39:00.343Z,100.00
2023-03-16T21:46:20.028Z,100.00
2023-03-16T21:53:40.522Z,100.00
2023-03-16T22:00:59.406Z,100.00
2023-03-16T22:08:19.855Z,100.00
2023-03-16T22:15:40.026Z,100.00
2023-03-16T22:22:58.368Z,100.00
2023-03-16T22:30:18.862Z,100.00
2023-03-16T22:37:38.372Z,100.00
2023-03-16T22:44:56.578Z,100.00
2023-03-16T22:52:15.098Z,100.00
2023-03-16T22:59:35.749Z,100.00
2023-03-16T23:06:54.866Z,100.00
2023-03-16T23:14:14.345Z,100.00
2023-03-16T23:21:34.134Z,100.00
2023-03-16T23:28:52.920Z,100.00
2023-03-16T23:36:15.529Z,100.00
2023-03-16T23:43:35.507Z,100.00
2023-03-16T23:50:55.536Z,100.00
2023-03-16T23:58:16.113Z,100.00
